Casares, Argentina
Current Conditions -  °F | °C
As of 5:00 AM on Wednesday 22 Oct 2014 (Local Time) from SACO Reporting Station
Clear Clear  
Wind Chill: 66°   Ceiling: Unl
Heat Index: 66°   Visibility: 6mi
Dew Point: 48°   Wind: 13mph
Humidity: 52%   Direction: 20°NNE
Pressure: 29.97"   Gusts: NA
Location:  29.44°S, 62.35°W
Report Text: SACO 220800Z 02011KT CAVOK 19/09 Q1015
Loading
Personal Weather Stations






























Interactive Weather Map
Tropical Storm Tracking
New forecast layout! Learn more

10-Day Weather Forecast

Advertisements
Track Severe Weather on mobile